Time;durP1;ratioP1;P1;durP2;ratioP2;P2;SDS_P1;SDS_P2;PMS_P1;PMS_P2;Temp;Humidity;BMP_temperature;BMP_pressure;BME280_temperature;BME280_humidity;BME280_pressure;Samples;Min_cycle;Max_cycle;Signal;HPM_P1;HPM_P2
2023/12/11 00:00:43;;;;;;;;;;;8.60;99.90;;;;;;5039917;28;20432;-88
2023/12/11 00:03:08;;;;;;;;;;;8.60;99.90;;;;;;5023337;28;19935;-88
2023/12/11 00:05:34;;;;;;;;;;;8.50;99.90;;;;;;5040306;28;19924;-92
2023/12/11 00:07:59;;;;;;;;;;;8.50;99.90;;;;;;5033341;28;19925;-91
2023/12/11 00:10:25;;;;;;;;;;;8.50;99.90;;;;;;5040875;28;19925;-89
2023/12/11 00:12:51;;;;;;;;;;;8.40;99.90;;;;;;5022185;28;20376;-87
2023/12/11 00:15:16;;;;;;;;;;;8.30;99.90;;;;;;5037897;28;20596;-88
2023/12/11 00:17:43;;;;;;;;;;;8.30;99.90;;;;;;5037996;28;19924;-87
2023/12/11 00:20:09;;;;;;;;;;;8.30;99.90;;;;;;5033731;28;19928;-90
2023/12/11 00:22:35;;;;;;;;;;;8.20;99.90;;;;;;5015246;28;19982;-88
2023/12/11 00:25:01;;;;;;;;;;;8.20;99.90;;;;;;5038674;28;20310;-88
2023/12/11 00:27:27;;;;;;;;;;;8.10;99.90;;;;;;5021930;28;19928;-87
2023/12/11 00:29:53;;;;;;;;;;;8.00;99.90;;;;;;5038091;28;19921;-88
2023/12/11 00:32:19;;;;;;;;;;;7.90;99.90;;;;;;5036730;28;19934;-87
2023/12/11 00:34:45;;;;;;;;;;;7.70;99.90;;;;;;5039242;28;20371;-88
2023/12/11 00:37:10;;;;;;;;;;;7.80;99.90;;;;;;5036562;28;19927;-89
2023/12/11 00:39:36;;;;;;;;;;;7.80;99.90;;;;;;5037612;28;19924;-87
2023/12/11 00:42:02;;;;;;;;;;;7.80;99.90;;;;;;5023186;28;19950;-87
2023/12/11 00:44:27;;;;;;;;;;;7.90;99.90;;;;;;5038654;28;19924;-88
2023/12/11 00:46:53;;;;;;;;;;;7.80;99.90;;;;;;5055449;28;20090;-87
2023/12/11 00:49:18;;;;;;;;;;;7.80;99.90;;;;;;5036278;28;20028;-87
2023/12/11 00:51:46;;;;;;;;;;;7.50;99.90;;;;;;5037768;28;19924;-87
2023/12/11 00:54:11;;;;;;;;;;;7.90;99.90;;;;;;5023375;28;20268;-90
2023/12/11 00:56:37;;;;;;;;;;;7.90;99.90;;;;;;5021142;28;19928;-87
2023/12/11 00:59:03;;;;;;;;;;;7.90;99.90;;;;;;5042817;28;19927;-87
2023/12/11 01:01:28;;;;;;;;;;;7.80;99.90;;;;;;5038489;28;20094;-86
2023/12/11 01:03:54;;;;;;;;;;;7.90;99.90;;;;;;5038557;28;20479;-86
2023/12/11 01:06:19;;;;;;;;;;;7.90;99.90;;;;;;5037442;28;20140;-87
2023/12/11 01:08:45;;;;;;;;;;;7.90;99.90;;;;;;5039024;28;19926;-86
2023/12/11 01:11:11;;;;;;;;;;;7.90;99.90;;;;;;5022686;28;20363;-88
2023/12/11 01:13:37;;;;;;;;;;;8.00;99.90;;;;;;5036565;28;20017;-88
2023/12/11 01:16:03;;;;;;;;;;;7.90;99.90;;;;;;5020179;28;19925;-87
2023/12/11 01:18:28;;;;;;;;;;;8.00;99.90;;;;;;5038297;28;19932;-87
2023/12/11 01:20:54;;;;;;;;;;;8.00;99.90;;;;;;5020609;28;19967;-87
2023/12/11 01:23:20;;;;;;;;;;;8.00;99.90;;;;;;5034768;28;20003;-86
2023/12/11 01:25:46;;;;;;;;;;;8.10;99.90;;;;;;5033945;28;19964;-88
2023/12/11 01:28:11;;;;;;;;;;;8.00;99.90;;;;;;5011047;28;20406;-87
2023/12/11 01:30:37;;;;;;;;;;;8.10;99.90;;;;;;5019985;28;19928;-87
2023/12/11 01:33:03;;;;;;;;;;;8.10;99.90;;;;;;5036499;28;20438;-87
2023/12/11 01:35:29;;;;;;;;;;;8.10;99.90;;;;;;5035974;28;20415;-86
2023/12/11 01:37:54;;;;;;;;;;;8.10;99.90;;;;;;5036795;28;20023;-86
2023/12/11 01:40:20;;;;;;;;;;;8.10;99.90;;;;;;5035876;28;19999;-86
2023/12/11 01:42:45;;;;;;;;;;;8.10;99.90;;;;;;5037058;28;20586;-87
2023/12/11 01:45:11;;;;;;;;;;;8.20;99.90;;;;;;5035664;28;20010;-87
2023/12/11 01:47:37;;;;;;;;;;;8.20;99.90;;;;;;5053117;28;20008;-85
2023/12/11 01:50:03;;;;;;;;;;;8.20;99.90;;;;;;5018812;28;20410;-85
2023/12/11 01:52:28;;;;;;;;;;;8.10;99.90;;;;;;5033934;28;19967;-85
2023/12/11 01:54:54;;;;;;;;;;;8.10;99.90;;;;;;5051952;28;20283;-92
2023/12/11 01:57:20;;;;;;;;;;;8.10;99.90;;;;;;5020743;28;19920;-88
2023/12/11 01:59:46;;;;;;;;;;;8.10;99.90;;;;;;5034386;28;19936;-86
2023/12/11 02:02:12;;;;;;;;;;;8.10;99.90;;;;;;5018230;28;19942;-87
2023/12/11 02:04:38;;;;;;;;;;;8.10;99.90;;;;;;5009065;28;19926;-85
2023/12/11 02:07:03;;;;;;;;;;;8.20;99.90;;;;;;5035132;28;19921;-87
2023/12/11 02:09:29;;;;;;;;;;;8.20;99.90;;;;;;5018428;28;19929;-86
2023/12/11 02:11:55;;;;;;;;;;;8.20;99.90;;;;;;5046578;28;19947;-87
2023/12/11 02:14:21;;;;;;;;;;;8.20;99.90;;;;;;5021016;28;20443;-86
2023/12/11 02:16:47;;;;;;;;;;;7.00;99.90;;;;;;5014619;28;20448;-85
2023/12/11 02:19:13;;;;;;;;;;;8.30;99.90;;;;;;5015090;28;20003;-87
2023/12/11 02:21:38;;;;;;;;;;;8.30;99.90;;;;;;5035176;28;20035;-90
2023/12/11 02:24:07;;;;;;;;;;;8.30;99.90;;;;;;5037746;28;20027;-90
2023/12/11 02:26:33;;;;;;;;;;;8.30;99.90;;;;;;5039563;28;19920;-91
2023/12/11 02:28:58;;;;;;;;;;;8.30;99.90;;;;;;5039117;28;19928;-91
2023/12/11 02:31:24;;;;;;;;;;;8.30;99.90;;;;;;5021775;28;20011;-92
2023/12/11 02:33:49;;;;;;;;;;;7.60;99.90;;;;;;5039201;28;19920;-96
2023/12/11 02:36:15;;;;;;;;;;;8.30;99.90;;;;;;5025728;28;19920;-96
2023/12/11 02:38:41;;;;;;;;;;;8.30;99.90;;;;;;5045888;28;19921;-94
2023/12/11 02:41:06;;;;;;;;;;;8.30;99.90;;;;;;5026156;28;19973;-94
2023/12/11 02:43:33;;;;;;;;;;;8.30;99.90;;;;;;5039376;28;19931;-96
2023/12/11 02:46:02;;;;;;;;;;;8.30;99.90;;;;;;5039269;28;19920;-93
2023/12/11 02:48:29;;;;;;;;;;;8.30;99.90;;;;;;5038474;28;20355;-93
2023/12/11 02:50:54;;;;;;;;;;;8.30;99.90;;;;;;5038317;28;20213;-92
2023/12/11 02:53:20;;;;;;;;;;;8.30;99.90;;;;;;5038552;28;19921;-93
2023/12/11 02:55:46;;;;;;;;;;;8.30;99.90;;;;;;5054552;28;19925;-93
2023/12/11 02:58:12;;;;;;;;;;;8.30;99.90;;;;;;5036313;28;19943;-94
2023/12/11 03:00:37;;;;;;;;;;;8.30;99.90;;;;;;5022822;28;19920;-94
2023/12/11 03:03:03;;;;;;;;;;;8.30;99.90;;;;;;5022009;28;20325;-93
2023/12/11 03:05:29;;;;;;;;;;;8.40;99.90;;;;;;5022135;28;20260;-90
2023/12/11 03:07:54;;;;;;;;;;;8.40;99.90;;;;;;5036162;28;19929;-92
2023/12/11 03:10:20;;;;;;;;;;;8.30;99.90;;;;;;5022542;28;19924;-93
2023/12/11 03:12:46;;;;;;;;;;;8.40;99.90;;;;;;5029816;28;20015;-91
2023/12/11 03:15:11;;;;;;;;;;;8.40;99.90;;;;;;5021802;28;20042;-93
2023/12/11 03:17:37;;;;;;;;;;;8.40;99.90;;;;;;5018434;28;20479;-93
2023/12/11 03:20:05;;;;;;;;;;;8.40;99.90;;;;;;5036666;28;19943;-88
2023/12/11 03:22:30;;;;;;;;;;;8.40;99.90;;;;;;5021223;28;19920;-92
2023/12/11 03:24:56;;;;;;;;;;;8.40;99.90;;;;;;5023232;28;20478;-90
2023/12/11 03:27:22;;;;;;;;;;;8.40;99.90;;;;;;5025927;28;19921;-91
2023/12/11 03:29:50;;;;;;;;;;;8.40;99.90;;;;;;5028940;28;19924;-88
2023/12/11 03:32:16;;;;;;;;;;;8.40;99.90;;;;;;5015630;28;19940;-91
2023/12/11 03:34:42;;;;;;;;;;;8.40;99.90;;;;;;4998864;28;19921;-93
2023/12/11 03:37:09;;;;;;;;;;;8.40;99.90;;;;;;5009224;28;20032;-92
2023/12/11 03:39:34;;;;;;;;;;;8.40;99.90;;;;;;5008770;28;19932;-94
2023/12/11 03:42:00;;;;;;;;;;;8.30;99.90;;;;;;5017290;28;19921;-91
2023/12/11 03:44:25;;;;;;;;;;;8.40;99.90;;;;;;5009355;28;19959;-95
2023/12/11 03:46:51;;;;;;;;;;;8.40;99.90;;;;;;5026719;28;19929;-93
2023/12/11 03:49:18;;;;;;;;;;;8.30;99.90;;;;;;5002004;28;20237;-92
2023/12/11 03:51:44;;;;;;;;;;;8.40;99.90;;;;;;5019263;28;19920;-94
2023/12/11 03:54:09;;;;;;;;;;;8.30;99.90;;;;;;5029634;28;19921;-89
2023/12/11 03:56:35;;;;;;;;;;;8.30;99.90;;;;;;5028259;28;19925;-90
2023/12/11 03:59:01;;;;;;;;;;;8.40;99.90;;;;;;5005750;28;19974;-92
2023/12/11 04:01:26;;;;;;;;;;;8.40;99.90;;;;;;5043342;28;20927;-90
2023/12/11 04:03:52;;;;;;;;;;;8.40;99.90;;;;;;5025769;28;20007;-91
2023/12/11 04:06:18;;;;;;;;;;;8.40;99.90;;;;;;5018723;28;19921;-89
2023/12/11 04:08:43;;;;;;;;;;;8.40;99.90;;;;;;5016865;28;20005;-89
2023/12/11 04:11:09;;;;;;;;;;;8.50;99.90;;;;;;5027569;28;19972;-89
2023/12/11 04:13:35;;;;;;;;;;;8.40;99.90;;;;;;5025559;28;19925;-92
2023/12/11 04:16:00;;;;;;;;;;;8.40;99.90;;;;;;5022759;28;19971;-87
2023/12/11 04:18:26;;;;;;;;;;;8.40;99.90;;;;;;5012472;28;19925;-92
2023/12/11 04:20:51;;;;;;;;;;;8.40;99.90;;;;;;5029341;28;20289;-89
2023/12/11 04:23:17;;;;;;;;;;;8.40;99.90;;;;;;5002124;28;20383;-91
2023/12/11 04:25:44;;;;;;;;;;;8.30;99.90;;;;;;5022973;28;20495;-89
2023/12/11 04:28:09;;;;;;;;;;;8.40;99.90;;;;;;5004264;28;19933;-92
2023/12/11 04:30:35;;;;;;;;;;;8.40;99.90;;;;;;5020339;28;19925;-91
2023/12/11 04:33:01;;;;;;;;;;;8.40;99.90;;;;;;5043280;28;19947;-89
2023/12/11 04:35:26;;;;;;;;;;;8.50;99.90;;;;;;5020455;28;20046;-91
2023/12/11 04:37:52;;;;;;;;;;;8.50;99.90;;;;;;5024050;28;19969;-92
2023/12/11 04:40:17;;;;;;;;;;;8.50;99.90;;;;;;5046275;28;20380;-92
2023/12/11 04:42:43;;;;;;;;;;;8.50;99.90;;;;;;5040127;28;19921;-93
2023/12/11 04:45:09;;;;;;;;;;;8.50;99.90;;;;;;5040787;28;19931;-91
2023/12/11 04:47:34;;;;;;;;;;;8.50;99.90;;;;;;5055303;28;19924;-93
2023/12/11 04:50:00;;;;;;;;;;;8.40;99.90;;;;;;5037432;28;19956;-93
2023/12/11 04:52:26;;;;;;;;;;;8.40;99.90;;;;;;5022489;28;19939;-92
2023/12/11 04:54:51;;;;;;;;;;;8.40;99.90;;;;;;5039898;28;20248;-89
2023/12/11 04:57:17;;;;;;;;;;;8.40;99.90;;;;;;5040114;28;20362;-91
2023/12/11 04:59:43;;;;;;;;;;;8.40;99.90;;;;;;5023101;28;19946;-93
2023/12/11 05:02:08;;;;;;;;;;;8.40;99.90;;;;;;5022139;28;20756;-90
2023/12/11 05:04:34;;;;;;;;;;;8.40;99.90;;;;;;5039098;28;20391;-91
2023/12/11 05:07:00;;;;;;;;;;;8.40;99.90;;;;;;5040700;28;19920;-93
2023/12/11 05:09:25;;;;;;;;;;;8.40;99.90;;;;;;5023020;28;20367;-90
2023/12/11 05:11:51;;;;;;;;;;;8.50;99.90;;;;;;5039466;28;19920;-91
2023/12/11 05:14:16;;;;;;;;;;;8.50;99.90;;;;;;5020911;28;20033;-92
2023/12/11 05:16:42;;;;;;;;;;;8.40;99.90;;;;;;5020072;28;19964;-92
2023/12/11 05:19:08;;;;;;;;;;;8.40;99.90;;;;;;5023133;28;20355;-91
2023/12/11 05:21:34;;;;;;;;;;;8.40;99.90;;;;;;5020225;28;20406;-93
2023/12/11 05:23:59;;;;;;;;;;;8.40;99.90;;;;;;5021372;28;20447;-94
2023/12/11 05:26:25;;;;;;;;;;;8.40;99.90;;;;;;5020149;28;19920;-91
2023/12/11 05:28:51;;;;;;;;;;;8.40;99.90;;;;;;5018996;28;19926;-88
2023/12/11 05:31:16;;;;;;;;;;;8.50;99.90;;;;;;5022878;28;19931;-90
2023/12/11 05:33:42;;;;;;;;;;;8.40;99.90;;;;;;5051829;28;20053;-92
2023/12/11 05:36:08;;;;;;;;;;;8.40;99.90;;;;;;5035853;28;20338;-92
2023/12/11 05:38:34;;;;;;;;;;;8.40;99.90;;;;;;5036809;28;19921;-93
2023/12/11 05:40:59;;;;;;;;;;;8.40;99.90;;;;;;5022407;28;19950;-94
2023/12/11 05:43:25;;;;;;;;;;;8.40;99.90;;;;;;5038781;28;19995;-91
2023/12/11 05:45:50;;;;;;;;;;;8.40;99.90;;;;;;5039108;28;20564;-91
2023/12/11 05:48:17;;;;;;;;;;;8.40;99.90;;;;;;5022427;28;19932;-92
2023/12/11 05:50:43;;;;;;;;;;;8.40;99.90;;;;;;5021803;28;19946;-90
2023/12/11 05:53:09;;;;;;;;;;;8.40;99.90;;;;;;5055259;28;19928;-92
2023/12/11 05:55:34;;;;;;;;;;;8.40;99.90;;;;;;5021432;28;19936;-93
2023/12/11 05:58:00;;;;;;;;;;;8.40;99.90;;;;;;5009471;28;19960;-92
2023/12/11 06:00:26;;;;;;;;;;;8.40;99.90;;;;;;5024165;28;19920;-94
2023/12/11 06:02:51;;;;;;;;;;;8.40;99.90;;;;;;5016837;28;20284;-93
2023/12/11 06:05:17;;;;;;;;;;;8.50;99.90;;;;;;5037284;28;19927;-95
2023/12/11 06:07:43;;;;;;;;;;;8.40;99.90;;;;;;5039764;28;19920;-96
2023/12/11 06:10:08;;;;;;;;;;;8.40;99.90;;;;;;5020266;28;19920;-88
2023/12/11 06:12:34;;;;;;;;;;;8.40;99.90;;;;;;5018720;28;19950;-91
2023/12/11 06:14:59;;;;;;;;;;;8.40;99.90;;;;;;5014034;28;19935;-88
2023/12/11 06:17:25;;;;;;;;;;;8.40;99.90;;;;;;5036885;28;19920;-91
2023/12/11 06:19:51;;;;;;;;;;;8.40;99.90;;;;;;5052360;28;19920;-92
2023/12/11 06:22:16;;;;;;;;;;;8.40;99.90;;;;;;5031934;28;19928;-92
2023/12/11 06:24:42;;;;;;;;;;;8.40;99.90;;;;;;5049145;28;20397;-89
2023/12/11 06:27:08;;;;;;;;;;;8.40;99.90;;;;;;5018291;28;20526;-87
2023/12/11 06:29:34;;;;;;;;;;;8.40;99.90;;;;;;5028640;28;19920;-87
2023/12/11 06:31:59;;;;;;;;;;;8.40;99.90;;;;;;5029399;28;19925;-86
2023/12/11 06:34:25;;;;;;;;;;;8.30;99.90;;;;;;5017621;28;19927;-87
2023/12/11 06:36:51;;;;;;;;;;;8.30;99.90;;;;;;5032810;28;19920;-85
2023/12/11 06:39:17;;;;;;;;;;;8.30;99.90;;;;;;5021680;28;19924;-85
2023/12/11 06:41:43;;;;;;;;;;;8.20;99.90;;;;;;5018362;28;19963;-85
2023/12/11 06:44:09;;;;;;;;;;;8.20;99.90;;;;;;5030766;28;20251;-86
2023/12/11 06:46:36;;;;;;;;;;;8.20;99.90;;;;;;5033794;28;19993;-86
2023/12/11 06:49:02;;;;;;;;;;;8.20;99.90;;;;;;5011552;28;19920;-87
2023/12/11 06:51:29;;;;;;;;;;;8.20;99.90;;;;;;5028770;28;20516;-86
2023/12/11 06:54:01;;;;;;;;;;;8.20;99.90;;;;;;5028860;28;19925;-85
2023/12/11 06:56:27;;;;;;;;;;;8.20;99.90;;;;;;5029244;28;19931;-85
2023/12/11 06:58:52;;;;;;;;;;;8.30;99.90;;;;;;5043729;28;19920;-84
2023/12/11 07:01:18;;;;;;;;;;;8.30;99.90;;;;;;5016369;28;19925;-87
2023/12/11 07:03:48;;;;;;;;;;;8.30;99.90;;;;;;5035778;28;19932;-87
2023/12/11 07:06:15;;;;;;;;;;;8.20;99.90;;;;;;5035404;28;19920;-87
2023/12/11 07:08:40;;;;;;;;;;;8.20;99.90;;;;;;5018520;28;19921;-86
2023/12/11 07:11:06;;;;;;;;;;;8.30;99.90;;;;;;5036702;28;19959;-87
2023/12/11 07:13:32;;;;;;;;;;;8.30;99.90;;;;;;5024264;28;20367;-87
2023/12/11 07:15:57;;;;;;;;;;;8.30;99.90;;;;;;5035007;28;19954;-86
2023/12/11 07:18:23;;;;;;;;;;;;;;;;;;5036465;28;19920;-87
2023/12/11 07:20:49;;;;;;;;;;;;;;;;;;5047866;28;20396;-88
2023/12/11 07:23:15;;;;;;;;;;;;;;;;;;5036029;28;20367;-89
2023/12/11 07:25:41;;;;;;;;;;;;;;;;;;5052469;28;19964;-87
2023/12/11 07:28:07;;;;;;;;;;;;;;;;;;5033193;28;19987;-88
2023/12/11 07:30:33;;;;;;;;;;;8.40;99.90;;;;;;5033989;28;19936;-86
2023/12/11 07:32:59;;;;;;;;;;;8.50;99.90;;;;;;5020847;28;19950;-88
2023/12/11 07:35:24;;;;;;;;;;;8.40;99.90;;;;;;5029773;28;20307;-86
2023/12/11 07:37:50;;;;;;;;;;;8.50;99.90;;;;;;5039718;28;19928;-87
2023/12/11 07:40:17;;;;;;;;;;;8.40;99.90;;;;;;5032078;28;19925;-87
2023/12/11 07:42:42;;;;;;;;;;;8.40;99.90;;;;;;5040190;28;19928;-87
2023/12/11 07:45:08;;;;;;;;;;;8.50;99.90;;;;;;5055344;28;19920;-87
2023/12/11 07:47:34;;;;;;;;;;;8.70;99.90;;;;;;5023053;28;19974;-87
2023/12/11 07:50:00;;;;;;;;;;;8.50;99.90;;;;;;5035142;28;19959;-88
2023/12/11 07:52:30;;;;;;;;;;;8.50;99.90;;;;;;5039322;28;19935;-86
2023/12/11 07:54:56;;;;;;;;;;;8.50;99.90;;;;;;5038474;28;19973;-86
2023/12/11 07:57:24;;;;;;;;;;;8.50;99.90;;;;;;5038704;28;20009;-87
2023/12/11 07:59:49;;;;;;;;;;;8.60;99.90;;;;;;5036022;28;20433;-87
2023/12/11 08:02:15;;;;;;;;;;;8.60;99.90;;;;;;5038088;28;19963;-86
2023/12/11 08:04:40;;;;;;;;;;;7.90;99.90;;;;;;5033991;28;20410;-88
2023/12/11 08:07:06;;;;;;;;;;;8.50;99.90;;;;;;5054452;28;19924;-87
2023/12/11 08:09:39;;;;;;;;;;;8.60;99.90;;;;;;5037167;28;20257;-87
2023/12/11 08:12:05;;;;;;;;;;;8.60;99.90;;;;;;5030329;28;19924;-87
2023/12/11 08:14:31;;;;;;;;;;;8.50;99.90;;;;;;5035305;28;20458;-86
2023/12/11 08:16:57;;;;;;;;;;;8.80;99.90;;;;;;5038349;28;19928;-85
2023/12/11 08:19:22;;;;;;;;;;;8.20;99.90;;;;;;5053968;28;19954;-87
2023/12/11 08:21:48;;;;;;;;;;;8.50;99.90;;;;;;5034061;28;19943;-87
2023/12/11 08:24:14;;;;;;;;;;;8.50;99.90;;;;;;5021582;28;20494;-87
2023/12/11 08:26:39;;;;;;;;;;;8.50;99.90;;;;;;5030643;28;19924;-87
2023/12/11 08:29:06;;;;;;;;;;;8.50;99.90;;;;;;5035131;28;19970;-86
2023/12/11 08:31:32;;;;;;;;;;;8.70;99.90;;;;;;5037167;28;19939;-86
2023/12/11 08:33:58;;;;;;;;;;;8.50;99.90;;;;;;5015180;28;19944;-87
2023/12/11 08:36:23;;;;;;;;;;;8.40;99.90;;;;;;5000176;28;19921;-86
2023/12/11 08:38:49;;;;;;;;;;;8.60;99.90;;;;;;4993314;28;19975;-86
2023/12/11 08:41:15;;;;;;;;;;;8.50;99.90;;;;;;5015944;28;20438;-87
2023/12/11 08:43:41;;;;;;;;;;;8.70;99.90;;;;;;5013734;28;19987;-87
2023/12/11 08:46:07;;;;;;;;;;;8.60;99.90;;;;;;5017535;28;20016;-86
2023/12/11 08:48:32;;;;;;;;;;;8.60;99.90;;;;;;5017503;28;20553;-88
2023/12/11 08:50:58;;;;;;;;;;;8.60;99.90;;;;;;5001315;28;19963;-86
2023/12/11 08:53:24;;;;;;;;;;;8.60;99.90;;;;;;4993235;28;19925;-87
2023/12/11 08:55:50;;;;;;;;;;;8.60;99.90;;;;;;4996180;28;19925;-86
2023/12/11 08:58:15;;;;;;;;;;;8.60;99.90;;;;;;5033586;28;20012;-86
2023/12/11 09:00:41;;;;;;;;;;;8.60;99.90;;;;;;4992446;28;20350;-86
2023/12/11 09:03:07;;;;;;;;;;;8.60;99.90;;;;;;5017011;28;19925;-86
2023/12/11 09:05:33;;;;;;;;;;;8.70;99.90;;;;;;4987558;28;19929;-88
2023/12/11 09:07:59;;;;;;;;;;;8.80;99.90;;;;;;5033309;28;19931;-86
2023/12/11 09:10:24;;;;;;;;;;;8.70;99.90;;;;;;5017027;28;19925;-88
2023/12/11 09:12:50;;;;;;;;;;;8.80;99.90;;;;;;5016178;28;19920;-87
2023/12/11 09:15:17;;;;;;;;;;;8.80;99.90;;;;;;5011464;28;19931;-88
2023/12/11 09:17:43;;;;;;;;;;;8.90;99.90;;;;;;5017307;28;20318;-87
2023/12/11 09:20:09;;;;;;;;;;;8.90;99.90;;;;;;5016786;28;19928;-87
2023/12/11 09:22:36;;;;;;;;;;;8.80;99.90;;;;;;5011696;28;20383;-87
2023/12/11 09:25:02;;;;;;;;;;;9.00;99.90;;;;;;5005348;28;19981;-90
2023/12/11 09:27:27;;;;;;;;;;;9.20;99.90;;;;;;5008464;28;19981;-89
2023/12/11 09:29:53;;;;;;;;;;;8.90;99.90;;;;;;5018038;28;19928;-87
2023/12/11 09:32:19;;;;;;;;;;;9.00;99.90;;;;;;4998542;28;20000;-87
2023/12/11 09:34:45;;;;;;;;;;;8.60;99.90;;;;;;5002184;28;19924;-87
2023/12/11 09:37:10;;;;;;;;;;;8.90;99.90;;;;;;5018185;28;19921;-89
2023/12/11 09:39:36;;;;;;;;;;;;;;;;;;5025570;28;19986;-89
2023/12/11 09:42:02;;;;;;;;;;;8.90;99.90;;;;;;5025460;28;19920;-89
2023/12/11 09:44:28;;;;;;;;;;;8.90;99.90;;;;;;5018536;28;19924;-89
2023/12/11 09:46:58;;;;;;;;;;;8.90;99.90;;;;;;5002448;28;19925;-90
2023/12/11 09:49:24;;;;;;;;;;;9.00;99.90;;;;;;5030146;28;19928;-89
2023/12/11 09:51:51;;;;;;;;;;;8.90;99.90;;;;;;5002498;28;20008;-90
2023/12/11 09:54:16;;;;;;;;;;;8.90;99.90;;;;;;5024814;28;20143;-88
2023/12/11 09:56:43;;;;;;;;;;;9.00;99.90;;;;;;5001162;28;20059;-91
2023/12/11 09:59:10;;;;;;;;;;;9.00;99.90;;;;;;5025166;28;19921;-90
2023/12/11 10:01:36;;;;;;;;;;;9.40;99.90;;;;;;5017535;28;19931;-90
2023/12/11 10:04:02;;;;;;;;;;;9.30;99.90;;;;;;5023477;28;19925;-88
2023/12/11 10:06:28;;;;;;;;;;;9.00;99.90;;;;;;5001750;28;19920;-90
2023/12/11 10:08:53;;;;;;;;;;;9.00;99.90;;;;;;5008379;28;19999;-88
2023/12/11 10:11:22;;;;;;;;;;;9.00;99.90;;;;;;5008408;28;19925;-89
2023/12/11 10:13:48;;;;;;;;;;;9.00;99.90;;;;;;5003805;28;19935;-89
2023/12/11 10:16:33;;;;;;;;;;;9.20;99.90;;;;;;5017046;28;19932;-88
2023/12/11 10:19:00;;;;;;;;;;;9.00;99.90;;;;;;5005390;28;20360;-88
2023/12/11 10:21:34;;;;;;;;;;;9.10;99.90;;;;;;5014440;28;19921;-92
2023/12/11 10:24:03;;;;;;;;;;;9.40;99.90;;;;;;5027817;28;20391;-93
2023/12/11 10:26:31;;;;;;;;;;;9.10;99.90;;;;;;5001426;28;19959;-93
2023/12/11 10:29:15;;;;;;;;;;;9.20;99.90;;;;;;5048501;28;19924;-89
2023/12/11 10:31:41;;;;;;;;;;;9.10;99.90;;;;;;5028158;28;20015;-88
2023/12/11 10:34:06;;;;;;;;;;;7.90;99.90;;;;;;5019247;28;19971;-88
2023/12/11 10:36:32;;;;;;;;;;;9.20;99.90;;;;;;5036276;28;20371;-88
2023/12/11 10:39:10;;;;;;;;;;;9.00;99.90;;;;;;5020406;28;19925;-88
2023/12/11 10:41:36;;;;;;;;;;;8.70;99.90;;;;;;5050852;28;20264;-94
2023/12/11 10:44:02;;;;;;;;;;;8.90;99.90;;;;;;5021386;28;19978;-88
2023/12/11 10:46:28;;;;;;;;;;;8.90;99.90;;;;;;5035665;28;19958;-89
2023/12/11 10:48:53;;;;;;;;;;;;;;;;;;5036680;28;20015;-88
2023/12/11 10:51:20;;;;;;;;;;;9.00;99.90;;;;;;5052186;28;19924;-90
2023/12/11 10:53:46;;;;;;;;;;;;;;;;;;5021043;28;20248;-87
2023/12/11 10:56:12;;;;;;;;;;;9.00;99.90;;;;;;5036752;28;19971;-89
2023/12/11 10:58:38;;;;;;;;;;;;;;;;;;5021179;28;19920;-89
2023/12/11 11:01:04;;;;;;;;;;;;;;;;;;5054778;28;19931;-91
2023/12/11 11:03:30;;;;;;;;;;;;;;;;;;5041770;28;19925;-91
2023/12/11 11:05:56;;;;;;;;;;;;;;;;;;5055754;28;20549;-88
2023/12/11 11:08:22;;;;;;;;;;;;;;;;;;5058025;28;19928;-93
2023/12/11 11:10:48;;;;;;;;;;;;;;;;;;5039533;28;19928;-88
2023/12/11 11:13:14;;;;;;;;;;;;;;;;;;5041391;28;19921;-90
2023/12/11 11:15:40;;;;;;;;;;;;;;;;;;5057302;28;19943;-87
2023/12/11 11:18:06;;;;;;;;;;;;;;;;;;5041556;28;19968;-88
2023/12/11 11:20:32;;;;;;;;;;;;;;;;;;5057022;28;19928;-90
2023/12/11 11:22:58;;;;;;;;;;;;;;;;;;5040248;28;19921;-86
2023/12/11 11:25:30;;;;;;;;;;;9.20;99.90;;;;;;5054814;28;20347;-88
2023/12/11 11:27:56;;;;;;;;;;;9.40;99.90;;;;;;5014786;28;19931;-87
2023/12/11 11:30:41;;;;;;;;;;;9.10;99.90;;;;;;5055086;28;20501;-92
2023/12/11 11:33:08;;;;;;;;;;;9.30;99.90;;;;;;5028800;28;20039;-87
2023/12/11 11:35:43;;;;;;;;;;;9.10;99.90;;;;;;5036110;28;19921;-89
2023/12/11 11:38:09;;;;;;;;;;;9.30;99.90;;;;;;5020820;28;19982;-92
2023/12/11 11:40:35;;;;;;;;;;;9.30;99.90;;;;;;5015890;28;19925;-88
2023/12/11 11:43:02;;;;;;;;;;;;;;;;;;5020559;28;19944;-87
2023/12/11 11:45:28;;;;;;;;;;;9.10;99.90;;;;;;5043566;28;19920;-85
2023/12/11 11:47:54;;;;;;;;;;;8.80;99.90;;;;;;5016026;28;20375;-90
2023/12/11 11:50:20;;;;;;;;;;;;;;;;;;5001737;28;19933;-90
2023/12/11 11:52:47;;;;;;;;;;;9.00;99.90;;;;;;5018498;28;19921;-89
2023/12/11 11:55:16;;;;;;;;;;;9.00;99.90;;;;;;5033887;28;19953;-88
2023/12/11 11:57:43;;;;;;;;;;;9.20;99.90;;;;;;5034809;28;19966;-88
2023/12/11 12:00:09;;;;;;;;;;;9.00;99.90;;;;;;5035084;28;19925;-88
2023/12/11 12:02:34;;;;;;;;;;;8.90;99.90;;;;;;5032216;28;19950;-88
2023/12/11 12:05:09;;;;;;;;;;;9.00;99.90;;;;;;5040209;28;20356;-92
2023/12/11 12:07:39;;;;;;;;;;;9.50;99.90;;;;;;5035568;28;19929;-86
2023/12/11 12:10:05;;;;;;;;;;;9.10;99.90;;;;;;5024301;28;19925;-88
2023/12/11 12:12:32;;;;;;;;;;;8.90;99.90;;;;;;5004391;28;19921;-87
2023/12/11 12:15:05;;;;;;;;;;;8.90;99.90;;;;;;5016006;28;19990;-86
2023/12/11 12:17:31;;;;;;;;;;;9.00;99.90;;;;;;5021260;28;19980;-90
2023/12/11 12:19:56;;;;;;;;;;;8.80;99.90;;;;;;5021642;28;20017;-89
2023/12/11 12:22:22;;;;;;;;;;;9.00;99.90;;;;;;5020234;28;19929;-90
2023/12/11 12:24:51;;;;;;;;;;;9.00;99.90;;;;;;5022255;28;19931;-89
2023/12/11 12:27:22;;;;;;;;;;;9.10;99.90;;;;;;5005961;28;19925;-90
2023/12/11 12:29:48;;;;;;;;;;;9.20;99.90;;;;;;5010805;28;19928;-85
2023/12/11 12:32:14;;;;;;;;;;;9.00;99.90;;;;;;5019311;28;20276;-87
2023/12/11 12:34:44;;;;;;;;;;;8.90;99.90;;;;;;5022111;28;19925;-89
2023/12/11 12:37:10;;;;;;;;;;;9.00;99.90;;;;;;5034718;28;19978;-88
2023/12/11 12:39:36;;;;;;;;;;;9.00;99.90;;;;;;5020776;28;19921;-89
2023/12/11 12:42:02;;;;;;;;;;;9.60;99.90;;;;;;5018399;28;19921;-85
2023/12/11 12:44:27;;;;;;;;;;;8.90;99.90;;;;;;5014005;28;20047;-87
2023/12/11 12:46:59;;;;;;;;;;;9.00;99.90;;;;;;4998950;28;19987;-86
2023/12/11 12:49:24;;;;;;;;;;;9.00;99.90;;;;;;5021996;28;19931;-86
2023/12/11 12:51:51;;;;;;;;;;;9.20;99.90;;;;;;5015603;28;20431;-87
2023/12/11 12:54:17;;;;;;;;;;;8.80;99.90;;;;;;5018183;28;19985;-90
2023/12/11 12:56:44;;;;;;;;;;;8.80;99.90;;;;;;5003695;28;19927;-89
2023/12/11 12:59:13;;;;;;;;;;;8.60;99.90;;;;;;5017988;28;20266;-89
2023/12/11 13:01:40;;;;;;;;;;;8.60;99.90;;;;;;5034390;28;20364;-90
2023/12/11 13:04:10;;;;;;;;;;;8.60;99.90;;;;;;5021849;28;19925;-85
2023/12/11 13:06:35;;;;;;;;;;;8.50;99.90;;;;;;5020866;28;19967;-88
2023/12/11 13:09:01;;;;;;;;;;;8.50;99.90;;;;;;5033750;28;19925;-88
2023/12/11 13:11:40;;;;;;;;;;;8.30;99.90;;;;;;5010727;28;19924;-87
2023/12/11 13:14:07;;;;;;;;;;;8.50;99.90;;;;;;5018087;28;19921;-88
2023/12/11 13:16:32;;;;;;;;;;;8.40;99.90;;;;;;5018333;28;20296;-89
2023/12/11 13:18:58;;;;;;;;;;;8.40;99.90;;;;;;5017489;28;19921;-87
2023/12/11 13:21:24;;;;;;;;;;;8.30;99.90;;;;;;5014479;28;19956;-88
2023/12/11 13:23:49;;;;;;;;;;;8.30;99.90;;;;;;5017569;28;19929;-87
2023/12/11 13:26:15;;;;;;;;;;;8.30;99.90;;;;;;5017363;28;20384;-87
2023/12/11 13:28:40;;;;;;;;;;;8.30;99.90;;;;;;5016406;28;19960;-89
2023/12/11 13:31:06;;;;;;;;;;;8.30;99.90;;;;;;5005623;28;19925;-88
2023/12/11 13:33:34;;;;;;;;;;;8.20;99.90;;;;;;5023197;28;19933;-89
2023/12/11 13:36:00;;;;;;;;;;;8.30;99.90;;;;;;5014770;28;19924;-87
2023/12/11 13:38:25;;;;;;;;;;;8.30;99.90;;;;;;5016869;28;19927;-87
2023/12/11 13:40:51;;;;;;;;;;;8.00;99.90;;;;;;5016231;28;21016;-89
2023/12/11 13:43:17;;;;;;;;;;;8.10;99.90;;;;;;5036891;28;20380;-89
2023/12/11 13:45:43;;;;;;;;;;;8.10;99.90;;;;;;5027188;28;19920;-88
2023/12/11 13:48:08;;;;;;;;;;;8.10;99.90;;;;;;5018862;28;19921;-87
2023/12/11 13:50:34;;;;;;;;;;;8.10;99.90;;;;;;5001025;28;20359;-88
2023/12/11 13:53:00;;;;;;;;;;;7.70;99.90;;;;;;4998124;28;20361;-90
2023/12/11 13:55:25;;;;;;;;;;;8.20;99.90;;;;;;5016860;28;19958;-89
2023/12/11 13:57:51;;;;;;;;;;;8.10;99.90;;;;;;5025637;28;20004;-87
2023/12/11 14:00:17;;;;;;;;;;;7.90;99.90;;;;;;5000638;28;20372;-88
2023/12/11 14:02:44;;;;;;;;;;;8.00;99.90;;;;;;5025227;28;19969;-93
2023/12/11 14:05:13;;;;;;;;;;;7.80;99.90;;;;;;5024442;28;19936;-86
2023/12/11 14:07:39;;;;;;;;;;;7.90;99.90;;;;;;5017622;28;20225;-87
2023/12/11 14:10:07;;;;;;;;;;;8.10;99.90;;;;;;5017365;28;19925;-86
2023/12/11 14:12:36;;;;;;;;;;;8.10;99.90;;;;;;5017639;28;20033;-87
2023/12/11 14:15:02;;;;;;;;;;;8.10;99.90;;;;;;5020980;28;19969;-88
2023/12/11 14:17:27;;;;;;;;;;;8.10;99.90;;;;;;5045807;28;20385;-86
2023/12/11 14:19:54;;;;;;;;;;;8.20;99.90;;;;;;4999986;28;19928;-85
2023/12/11 14:22:19;;;;;;;;;;;8.20;99.90;;;;;;5003399;28;19946;-89
2023/12/11 14:24:45;;;;;;;;;;;8.10;99.90;;;;;;5002019;28;19925;-90
2023/12/11 14:27:12;;;;;;;;;;;8.10;99.90;;;;;;4995964;28;19995;-91
2023/12/11 14:29:40;;;;;;;;;;;8.20;99.90;;;;;;5018060;28;20514;-90